GLD1793 LPPI-LPLA
Flight info
| Callsign | GLD1793 |
|---|---|
| Flight time | 0h 21m |
| Altitude | 13000 |
| Route | GORZ1E GORZI DCT LIZHA DCT CUDLY DCT |
| Aircraft | B738/M-SDFGIRY/S |
Departure
| Time | 2026-05-06 19:29 |
|---|---|
| Airport | Pico Airport (LPPI) |
Arrival
| Time | 2026-05-06 19:50 |
|---|---|
| Airport | Lajes Airport (LPLA) |
| Time | Latitude | Longitude | Altitude | Speed | Heading |
|---|---|---|---|---|---|
| 2026-05-06 18:56 | 38.55278 | -28.44108 | 122 ft | 0 kts | 296° |
| 2026-05-06 19:21 | 38.55278 | -28.44109 | 125 ft | 0 kts | 297° |
| 2026-05-06 19:21 | 38.55278 | -28.44108 | 125 ft | 0 kts | 297° |
| 2026-05-06 19:22 | 38.55279 | -28.44110 | 124 ft | 0 kts | 298° |
| 2026-05-06 19:22 | 38.55279 | -28.44111 | 124 ft | 0 kts | 299° |
| 2026-05-06 19:23 | 38.55284 | -28.44113 | 123 ft | 2 kts | 333° |
| 2026-05-06 19:23 | 38.55296 | -28.44115 | 122 ft | 2 kts | 356° |
| 2026-05-06 19:23 | 38.55309 | -28.44115 | 121 ft | 2 kts | 358° |
| 2026-05-06 19:23 | 38.55334 | -28.44117 | 122 ft | 5 kts | 356° |
| 2026-05-06 19:24 | 38.55379 | -28.44122 | 124 ft | 8 kts | 354° |
| 2026-05-06 19:24 | 38.55434 | -28.44091 | 124 ft | 10 kts | 58° |
| 2026-05-06 19:24 | 38.55448 | -28.43999 | 124 ft | 11 kts | 82° |
| 2026-05-06 19:24 | 38.55457 | -28.43908 | 127 ft | 10 kts | 82° |
| 2026-05-06 19:25 | 38.55467 | -28.43820 | 127 ft | 10 kts | 82° |
| 2026-05-06 19:25 | 38.55475 | -28.43735 | 129 ft | 10 kts | 83° |
| 2026-05-06 19:25 | 38.55483 | -28.43652 | 125 ft | 9 kts | 83° |
| 2026-05-06 19:25 | 38.55491 | -28.43572 | 127 ft | 9 kts | 83° |
| 2026-05-06 19:26 | 38.55499 | -28.43495 | 127 ft | 9 kts | 82° |
| 2026-05-06 19:26 | 38.55506 | -28.43420 | 127 ft | 8 kts | 85° |
| 2026-05-06 19:26 | 38.55512 | -28.43336 | 126 ft | 10 kts | 84° |
| 2026-05-06 19:26 | 38.55531 | -28.43222 | 125 ft | 15 kts | 64° |
| 2026-05-06 19:27 | 38.55544 | -28.43162 | 123 ft | 3 kts | 163° |
| 2026-05-06 19:27 | 38.55532 | -28.43180 | 124 ft | 0 kts | 261° |
| 2026-05-06 19:28 | 38.55526 | -28.43241 | 125 ft | 29 kts | 265° |
| 2026-05-06 19:28 | 38.55458 | -28.43903 | 127 ft | 119 kts | 263° |
| 2026-05-06 19:28 | 38.55314 | -28.45272 | 217 ft | 184 kts | 262° |
| 2026-05-06 19:29 | 38.55131 | -28.46949 | 1116 ft | 197 kts | 264° |
| 2026-05-06 19:29 | 38.55462 | -28.48680 | 1885 ft | 224 kts | 301° |
| 2026-05-06 19:29 | 38.56797 | -28.49969 | 2303 ft | 259 kts | 336° |
| 2026-05-06 19:29 | 38.58524 | -28.50165 | 2682 ft | 243 kts | 7° |
| 2026-05-06 19:30 | 38.60071 | -28.49465 | 2714 ft | 234 kts | 22° |
| 2026-05-06 19:30 | 38.61545 | -28.48545 | 2729 ft | 240 kts | 23° |
| 2026-05-06 19:30 | 38.63120 | -28.47542 | 2963 ft | 266 kts | 23° |
| 2026-05-06 19:30 | 38.64804 | -28.46481 | 3767 ft | 272 kts | 23° |
| 2026-05-06 19:31 | 38.66516 | -28.45422 | 4684 ft | 275 kts | 22° |
| 2026-05-06 19:31 | 38.68252 | -28.44363 | 5605 ft | 277 kts | 22° |
| 2026-05-06 19:31 | 38.71758 | -28.42245 | 7413 ft | 279 kts | 21° |
| 2026-05-06 19:32 | 38.73512 | -28.41185 | 8333 ft | 279 kts | 21° |
| 2026-05-06 19:32 | 38.75193 | -28.39927 | 9266 ft | 287 kts | 39° |
| 2026-05-06 19:32 | 38.76239 | -28.37708 | 10172 ft | 302 kts | 71° |
| 2026-05-06 19:32 | 38.76292 | -28.34966 | 10781 ft | 322 kts | 101° |
| 2026-05-06 19:33 | 38.75547 | -28.32180 | 11167 ft | 340 kts | 107° |
| 2026-05-06 19:33 | 38.74830 | -28.29161 | 11171 ft | 366 kts | 103° |
| 2026-05-06 19:33 | 38.74160 | -28.25910 | 11178 ft | 389 kts | 102° |
| 2026-05-06 19:33 | 38.73497 | -28.22449 | 11314 ft | 409 kts | 102° |
| 2026-05-06 19:34 | 38.72831 | -28.18858 | 11714 ft | 419 kts | 101° |
| 2026-05-06 19:34 | 38.72167 | -28.15190 | 12261 ft | 425 kts | 101° |
| 2026-05-06 19:34 | 38.71505 | -28.11490 | 12891 ft | 427 kts | 101° |
| 2026-05-06 19:34 | 38.70845 | -28.07772 | 13166 ft | 428 kts | 101° |
| 2026-05-06 19:35 | 38.70195 | -28.04108 | 13153 ft | 427 kts | 101° |
| 2026-05-06 19:35 | 38.69556 | -28.00503 | 13175 ft | 427 kts | 101° |
| 2026-05-06 19:35 | 38.68899 | -27.96799 | 13154 ft | 428 kts | 101° |
| 2026-05-06 19:35 | 38.68235 | -27.93067 | 13161 ft | 428 kts | 101° |
| 2026-05-06 19:36 | 38.67789 | -27.90561 | 13158 ft | 428 kts | 101° |
| 2026-05-06 19:36 | 38.67132 | -27.86886 | 13158 ft | 429 kts | 101° |
| 2026-05-06 19:36 | 38.66465 | -27.83159 | 13161 ft | 429 kts | 102° |
| 2026-05-06 19:36 | 38.65798 | -27.79438 | 13161 ft | 429 kts | 102° |
| 2026-05-06 19:37 | 38.65133 | -27.75737 | 13154 ft | 428 kts | 102° |
| 2026-05-06 19:37 | 38.64465 | -27.72025 | 13151 ft | 427 kts | 102° |
| 2026-05-06 19:37 | 38.63798 | -27.68329 | 13151 ft | 421 kts | 102° |
| 2026-05-06 19:37 | 38.63148 | -27.64742 | 13139 ft | 406 kts | 102° |
| 2026-05-06 19:38 | 38.62522 | -27.61293 | 12860 ft | 390 kts | 102° |
| 2026-05-06 19:38 | 38.61923 | -27.57992 | 12547 ft | 374 kts | 102° |
| 2026-05-06 19:38 | 38.61341 | -27.54794 | 12170 ft | 364 kts | 102° |
| 2026-05-06 19:38 | 38.60780 | -27.51706 | 11766 ft | 358 kts | 102° |
| 2026-05-06 19:39 | 38.60217 | -27.48615 | 11358 ft | 359 kts | 102° |
| 2026-05-06 19:39 | 38.59640 | -27.45445 | 11066 ft | 371 kts | 103° |
| 2026-05-06 19:39 | 38.59057 | -27.42251 | 10906 ft | 364 kts | 103° |
| 2026-05-06 19:39 | 38.58488 | -27.39141 | 10733 ft | 355 kts | 103° |
| 2026-05-06 19:40 | 38.57930 | -27.36101 | 10583 ft | 347 kts | 103° |
| 2026-05-06 19:40 | 38.57386 | -27.33140 | 10433 ft | 339 kts | 103° |
| 2026-05-06 19:40 | 38.56862 | -27.30291 | 10296 ft | 327 kts | 103° |
| 2026-05-06 19:40 | 38.56351 | -27.27518 | 10145 ft | 313 kts | 103° |
| 2026-05-06 19:41 | 38.55861 | -27.24865 | 9903 ft | 304 kts | 103° |
| 2026-05-06 19:41 | 38.55380 | -27.22260 | 9586 ft | 297 kts | 103° |
| 2026-05-06 19:41 | 38.54911 | -27.19725 | 9295 ft | 290 kts | 103° |
| 2026-05-06 19:41 | 38.54451 | -27.17242 | 9015 ft | 284 kts | 103° |
| 2026-05-06 19:42 | 38.53999 | -27.14801 | 8761 ft | 281 kts | 104° |
| 2026-05-06 19:42 | 38.53548 | -27.12372 | 8507 ft | 282 kts | 104° |
| 2026-05-06 19:42 | 38.53095 | -27.09939 | 8253 ft | 287 kts | 104° |
| 2026-05-06 19:42 | 38.52642 | -27.07449 | 7966 ft | 287 kts | 100° |
| 2026-05-06 19:43 | 38.52481 | -27.04947 | 7691 ft | 280 kts | 92° |
| 2026-05-06 19:43 | 38.52399 | -27.02465 | 7443 ft | 278 kts | 92° |
| 2026-05-06 19:43 | 38.52317 | -27.00008 | 7196 ft | 277 kts | 92° |
| 2026-05-06 19:43 | 38.52236 | -26.97553 | 6940 ft | 277 kts | 92° |
| 2026-05-06 19:44 | 38.52158 | -26.95100 | 6681 ft | 277 kts | 92° |
| 2026-05-06 19:44 | 38.52112 | -26.92642 | 6415 ft | 277 kts | 85° |
| 2026-05-06 19:44 | 38.52749 | -26.90390 | 6330 ft | 267 kts | 49° |
| 2026-05-06 19:44 | 38.54204 | -26.89039 | 6192 ft | 256 kts | 12° |
| 2026-05-06 19:45 | 38.55908 | -26.88996 | 5877 ft | 250 kts | 340° |
| 2026-05-06 19:45 | 38.57480 | -26.90001 | 5207 ft | 256 kts | 327° |
| 2026-05-06 19:45 | 38.58992 | -26.91203 | 4646 ft | 260 kts | 323° |
| 2026-05-06 19:45 | 38.60439 | -26.92566 | 4243 ft | 256 kts | 319° |
| 2026-05-06 19:46 | 38.61807 | -26.93992 | 3862 ft | 252 kts | 318° |
| 2026-05-06 19:46 | 38.63169 | -26.95433 | 3499 ft | 248 kts | 318° |
| 2026-05-06 19:46 | 38.64477 | -26.96810 | 3157 ft | 244 kts | 319° |
| 2026-05-06 19:46 | 38.65769 | -26.98164 | 2813 ft | 235 kts | 318° |
| 2026-05-06 19:47 | 38.67009 | -26.99462 | 2457 ft | 224 kts | 318° |
| 2026-05-06 19:47 | 38.68168 | -27.00676 | 2145 ft | 207 kts | 317° |
| 2026-05-06 19:47 | 38.69243 | -27.01802 | 1860 ft | 192 kts | 317° |
| 2026-05-06 19:47 | 38.70238 | -27.02846 | 1590 ft | 178 kts | 317° |
| 2026-05-06 19:48 | 38.71169 | -27.03822 | 1357 ft | 171 kts | 317° |
| 2026-05-06 19:48 | 38.72057 | -27.04753 | 1141 ft | 156 kts | 318° |
| 2026-05-06 19:48 | 38.72852 | -27.05586 | 924 ft | 143 kts | 318° |
| 2026-05-06 19:48 | 38.73643 | -27.06416 | 671 ft | 146 kts | 319° |
| 2026-05-06 19:49 | 38.74415 | -27.07234 | 462 ft | 144 kts | 319° |
| 2026-05-06 19:49 | 38.75191 | -27.08033 | 250 ft | 141 kts | 318° |
| 2026-05-06 19:49 | 38.75912 | -27.08808 | 180 ft | 124 kts | 317° |
| 2026-05-06 19:49 | 38.76440 | -27.09353 | 178 ft | 72 kts | 322° |
| 2026-05-06 19:50 | 38.76771 | -27.09694 | 179 ft | 53 kts | 321° |
| 2026-05-06 19:50 | 38.76998 | -27.09928 | 176 ft | 39 kts | 320° |
| 2026-05-06 19:50 | 38.77184 | -27.10112 | 175 ft | 20 kts | 346° |
| 2026-05-06 19:50 | 38.77236 | -27.10063 | 176 ft | 9 kts | 50° |
| 2026-05-06 19:51 | 38.77241 | -27.10056 | 176 ft | 0 kts | 50° |
| 2026-05-06 19:51 | 38.77241 | -27.10055 | 176 ft | 0 kts | 50° |
| 2026-05-06 19:51 | 38.77265 | -27.10013 | 176 ft | 8 kts | 63° |
| 2026-05-06 19:52 | 38.77245 | -27.09946 | 177 ft | 10 kts | 132° |
| 2026-05-06 19:52 | 38.77181 | -27.09871 | 177 ft | 13 kts | 140° |
| 2026-05-06 19:52 | 38.77097 | -27.09785 | 177 ft | 18 kts | 142° |
| 2026-05-06 19:52 | 38.77000 | -27.09687 | 177 ft | 18 kts | 141° |
| 2026-05-06 19:53 | 38.76907 | -27.09590 | 177 ft | 17 kts | 141° |
| 2026-05-06 19:53 | 38.76817 | -27.09497 | 177 ft | 16 kts | 141° |
| 2026-05-06 19:53 | 38.76731 | -27.09407 | 177 ft | 16 kts | 141° |
| 2026-05-06 19:53 | 38.76649 | -27.09320 | 177 ft | 15 kts | 140° |
| 2026-05-06 19:54 | 38.76569 | -27.09237 | 177 ft | 15 kts | 141° |
| 2026-05-06 19:54 | 38.76490 | -27.09153 | 177 ft | 15 kts | 141° |
| 2026-05-06 19:54 | 38.76413 | -27.09073 | 176 ft | 14 kts | 140° |
| 2026-05-06 19:54 | 38.76340 | -27.08995 | 177 ft | 13 kts | 140° |
| 2026-05-06 19:55 | 38.76270 | -27.08921 | 177 ft | 13 kts | 140° |
| 2026-05-06 19:55 | 38.76202 | -27.08850 | 177 ft | 13 kts | 143° |
| 2026-05-06 19:55 | 38.76133 | -27.08784 | 178 ft | 12 kts | 143° |
| 2026-05-06 19:55 | 38.76065 | -27.08720 | 178 ft | 12 kts | 143° |
| 2026-05-06 19:56 | 38.76005 | -27.08651 | 177 ft | 12 kts | 137° |
| 2026-05-06 19:56 | 38.75945 | -27.08585 | 177 ft | 11 kts | 140° |
| 2026-05-06 19:56 | 38.75883 | -27.08520 | 177 ft | 12 kts | 141° |
| 2026-05-06 19:56 | 38.75812 | -27.08448 | 177 ft | 14 kts | 141° |
| 2026-05-06 19:57 | 38.75725 | -27.08435 | 177 ft | 15 kts | 221° |
| 2026-05-06 19:57 | 38.75650 | -27.08507 | 177 ft | 13 kts | 169° |
| 2026-05-06 19:57 | 38.75570 | -27.08438 | 178 ft | 15 kts | 142° |
| 2026-05-06 19:57 | 38.75485 | -27.08486 | 177 ft | 15 kts | 230° |
| 2026-05-06 19:58 | 38.75487 | -27.08597 | 177 ft | 14 kts | 316° |
| 2026-05-06 19:58 | 38.75525 | -27.08708 | 177 ft | 14 kts | 304° |
| 2026-05-06 19:58 | 38.75576 | -27.08767 | 177 ft | 0 kts | 321° |